createdAt,value
2023-05-21T00:01:28.456Z,73.75
2023-05-21T00:03:54.948Z,73.26
2023-05-21T00:06:21.536Z,72.86
2023-05-21T00:08:47.854Z,72.75
2023-05-21T00:11:14.268Z,73.01
2023-05-21T00:13:40.665Z,73.28
2023-05-21T00:16:07.004Z,72.48
2023-05-21T00:18:33.297Z,72.27
2023-05-21T00:20:59.721Z,72.38
2023-05-21T00:23:26.168Z,72.13
2023-05-21T00:25:52.622Z,73.83
2023-05-21T00:28:19.075Z,74.67
2023-05-21T00:30:45.588Z,73.79
2023-05-21T00:33:11.991Z,74.30
2023-05-21T00:35:38.352Z,74.64
2023-05-21T00:38:04.647Z,74.98
2023-05-21T00:40:30.954Z,74.90
2023-05-21T00:42:57.348Z,74.32
2023-05-21T00:45:23.851Z,73.49
2023-05-21T00:47:50.432Z,73.13
2023-05-21T00:50:16.752Z,72.88
2023-05-21T00:52:43.053Z,72.86
2023-05-21T00:55:09.310Z,73.60
2023-05-21T00:57:35.598Z,73.40
2023-05-21T01:00:01.878Z,73.28
2023-05-21T01:02:28.505Z,73.78
2023-05-21T01:04:54.901Z,73.72
2023-05-21T01:07:21.360Z,73.88
2023-05-21T01:09:47.984Z,73.52
2023-05-21T01:12:14.280Z,73.71
2023-05-21T01:14:40.628Z,74.05
2023-05-21T01:17:07.193Z,74.32
2023-05-21T01:19:33.677Z,73.41
2023-05-21T01:22:00.045Z,72.47
2023-05-21T01:24:26.565Z,72.58
2023-05-21T01:26:55.028Z,73.34
2023-05-21T01:29:21.678Z,73.84
2023-05-21T01:31:48.048Z,73.69
2023-05-21T01:34:14.350Z,73.60
2023-05-21T01:36:41.039Z,73.75
2023-05-21T01:39:08.561Z,74.59
2023-05-21T01:41:35.057Z,73.75
2023-05-21T01:44:01.331Z,73.35
2023-05-21T01:46:27.817Z,73.63
2023-05-21T01:48:54.172Z,72.99
2023-05-21T01:51:20.480Z,72.77
2023-05-21T01:53:46.800Z,72.85
2023-05-21T01:56:13.315Z,72.15
2023-05-21T01:58:39.645Z,72.47
2023-05-21T02:01:05.956Z,72.71
2023-05-21T02:03:32.723Z,72.40
2023-05-21T02:05:59.554Z,73.29
2023-05-21T02:08:25.842Z,72.80
2023-05-21T02:10:52.127Z,72.92
2023-05-21T02:13:18.571Z,73.23
2023-05-21T02:15:44.898Z,73.89
2023-05-21T02:18:11.275Z,72.59
2023-05-21T02:20:37.910Z,73.72
2023-05-21T02:23:04.212Z,72.30
2023-05-21T02:25:30.666Z,71.53
2023-05-21T02:27:57.105Z,71.09
2023-05-21T02:30:24.290Z,71.17
2023-05-21T02:32:50.633Z,71.46
2023-05-21T02:35:17.024Z,72.61
2023-05-21T02:37:43.270Z,72.72
2023-05-21T02:40:09.585Z,72.70
2023-05-21T02:42:35.869Z,71.98
2023-05-21T02:45:02.411Z,71.92
2023-05-21T02:47:28.677Z,72.44
2023-05-21T02:49:55.019Z,72.06
2023-05-21T02:52:21.325Z,71.88
2023-05-21T02:54:47.586Z,71.68
2023-05-21T02:57:15.455Z,71.56
2023-05-21T02:59:41.738Z,71.09
2023-05-21T03:02:08.225Z,71.14
2023-05-21T03:04:34.529Z,71.75
2023-05-21T03:07:01.010Z,71.03
2023-05-21T03:09:27.273Z,70.55
2023-05-21T03:11:53.546Z,70.91
2023-05-21T03:14:20.226Z,71.03
2023-05-21T03:16:46.525Z,71.14
2023-05-21T03:19:12.902Z,71.13
2023-05-21T03:21:39.258Z,71.71
2023-05-21T03:24:05.617Z,71.30
2023-05-21T03:26:31.921Z,70.86
2023-05-21T03:28:58.187Z,70.23
2023-05-21T03:31:24.804Z,70.31
2023-05-21T03:33:51.215Z,70.78
2023-05-21T03:36:17.529Z,71.07
2023-05-21T03:38:43.847Z,71.37
2023-05-21T03:41:10.144Z,71.22
2023-05-21T03:43:36.460Z,71.13
2023-05-21T03:46:02.987Z,71.54
2023-05-21T03:48:29.336Z,71.19
2023-05-21T03:50:56.236Z,71.18
2023-05-21T03:53:22.527Z,72.28
2023-05-21T03:55:49.163Z,71.80
2023-05-21T03:58:15.429Z,71.51
2023-05-21T04:00:41.735Z,71.32
2023-05-21T04:03:08.137Z,70.49
2023-05-21T04:05:34.649Z,70.43
2023-05-21T04:08:01.001Z,70.15
2023-05-21T04:10:27.262Z,70.55
2023-05-21T04:12:53.930Z,70.57
2023-05-21T04:15:20.230Z,70.64
2023-05-21T04:17:46.707Z,70.21
2023-05-21T04:20:13.441Z,70.13
2023-05-21T04:22:39.897Z,69.57
2023-05-21T04:25:06.184Z,70.55
2023-05-21T04:27:32.433Z,71.02
2023-05-21T04:29:58.772Z,71.33
2023-05-21T04:32:25.048Z,70.70
2023-05-21T04:34:51.356Z,71.22
2023-05-21T04:37:17.614Z,71.06
2023-05-21T04:39:44.052Z,70.76
2023-05-21T04:42:10.376Z,70.63
2023-05-21T04:44:36.696Z,69.99
2023-05-21T04:47:03.386Z,68.80
2023-05-21T04:49:29.687Z,69.13
2023-05-21T04:51:55.993Z,69.28
2023-05-21T04:54:22.313Z,68.98
2023-05-21T04:56:48.571Z,67.48
2023-05-21T04:59:14.848Z,67.43
2023-05-21T05:01:41.182Z,68.26
2023-05-21T05:04:07.493Z,68.61
2023-05-21T05:06:33.777Z,68.88
2023-05-21T05:09:00.228Z,68.75
2023-05-21T05:11:26.874Z,68.53
2023-05-21T05:13:53.190Z,68.27
2023-05-21T05:16:19.515Z,67.59
2023-05-21T05:18:46.257Z,67.06
2023-05-21T05:21:12.934Z,66.56
2023-05-21T05:23:39.184Z,65.37
2023-05-21T05:26:05.530Z,65.51
2023-05-21T05:28:31.985Z,64.96
2023-05-21T05:30:58.300Z,63.42
2023-05-21T05:33:25.025Z,63.39
2023-05-21T05:35:51.793Z,63.30
2023-05-21T05:38:18.356Z,61.58
2023-05-21T05:40:44.821Z,61.43
2023-05-21T05:43:11.263Z,60.56
2023-05-21T05:45:38.076Z,60.53
2023-05-21T05:48:04.740Z,60.08
2023-05-21T05:50:31.375Z,59.11
2023-05-21T05:52:57.818Z,58.73
2023-05-21T05:55:24.184Z,58.35
2023-05-21T05:57:50.458Z,57.65
2023-05-21T06:00:16.731Z,55.61
2023-05-21T06:02:43.081Z,55.23
2023-05-21T06:05:09.512Z,53.90
2023-05-21T06:07:36.134Z,56.10
2023-05-21T06:10:02.476Z,57.27
2023-05-21T06:12:28.753Z,56.94
2023-05-21T06:14:55.160Z,56.15
2023-05-21T06:17:21.624Z,53.59
2023-05-21T06:19:47.904Z,52.76
2023-05-21T06:22:14.548Z,51.37
2023-05-21T06:24:41.031Z,50.96
2023-05-21T06:27:07.307Z,50.59
2023-05-21T06:29:33.679Z,51.45
2023-05-21T06:31:59.963Z,51.73
2023-05-21T06:34:26.232Z,52.07
2023-05-21T06:36:52.525Z,51.68
2023-05-21T06:39:18.960Z,51.73
2023-05-21T06:41:45.402Z,53.06
2023-05-21T06:44:11.658Z,52.49
2023-05-21T06:46:37.927Z,53.37
2023-05-21T06:49:04.342Z,55.98
2023-05-21T06:51:30.986Z,55.92
2023-05-21T06:53:57.428Z,54.83
2023-05-21T06:56:23.913Z,52.87
2023-05-21T06:58:50.172Z,54.14
2023-05-21T07:01:16.760Z,54.24
2023-05-21T07:03:43.197Z,52.08
2023-05-21T07:06:09.918Z,54.39
2023-05-21T07:08:36.197Z,54.40
2023-05-21T07:11:02.637Z,52.21
2023-05-21T07:13:29.107Z,54.86
2023-05-21T07:15:55.409Z,53.54
2023-05-21T07:18:22.068Z,52.98
2023-05-21T07:20:48.409Z,53.60
2023-05-21T07:23:14.705Z,50.66
2023-05-21T07:25:41.244Z,51.07
2023-05-21T07:28:07.625Z,52.03
2023-05-21T07:30:34.222Z,50.91
2023-05-21T07:33:00.631Z,51.50
2023-05-21T07:35:27.369Z,51.70
2023-05-21T07:37:53.739Z,52.00
2023-05-21T07:40:20.215Z,50.46
2023-05-21T07:42:46.490Z,51.64
2023-05-21T07:45:12.969Z,50.93
2023-05-21T07:47:39.332Z,49.90
2023-05-21T07:50:05.636Z,50.07
2023-05-21T07:52:32.260Z,49.71
2023-05-21T07:54:59.021Z,49.85
2023-05-21T07:57:25.400Z,49.12
2023-05-21T07:59:51.670Z,48.49
2023-05-21T08:02:17.948Z,50.84
2023-05-21T08:04:44.271Z,45.22
2023-05-21T08:07:10.978Z,45.96
2023-05-21T08:09:37.405Z,44.09
2023-05-21T08:12:03.818Z,47.03
2023-05-21T08:14:30.526Z,44.79
2023-05-21T08:16:56.824Z,45.66
2023-05-21T08:19:23.333Z,45.77
2023-05-21T08:21:52.092Z,45.75
2023-05-21T08:24:19.349Z,50.18
2023-05-21T08:26:45.656Z,49.68
2023-05-21T08:29:12.112Z,48.81
2023-05-21T08:31:38.790Z,45.97
2023-05-21T08:34:05.060Z,45.50
2023-05-21T08:36:31.337Z,45.63
2023-05-21T08:38:59.875Z,44.29
2023-05-21T08:41:26.628Z,43.84
2023-05-21T08:43:54.908Z,45.43
2023-05-21T08:46:21.443Z,44.02
2023-05-21T08:48:47.809Z,43.80
2023-05-21T08:51:14.098Z,44.61
2023-05-21T08:53:40.360Z,43.90
2023-05-21T08:56:06.652Z,43.32
2023-05-21T08:58:35.188Z,44.29
2023-05-21T09:01:01.647Z,42.10
2023-05-21T09:03:28.348Z,43.52
2023-05-21T09:05:54.643Z,41.86
2023-05-21T09:08:21.351Z,43.02
2023-05-21T09:10:47.619Z,41.52
2023-05-21T09:13:13.945Z,41.82
2023-05-21T09:15:40.410Z,43.48
2023-05-21T09:18:06.744Z,44.36
2023-05-21T09:20:33.103Z,41.81
2023-05-21T09:22:59.796Z,41.65
2023-05-21T09:25:26.173Z,41.82
2023-05-21T09:27:52.579Z,41.62
2023-05-21T09:30:19.499Z,41.18
2023-05-21T09:32:47.597Z,42.86
2023-05-21T09:35:13.921Z,46.08
2023-05-21T09:37:40.541Z,42.97
2023-05-21T09:40:06.899Z,38.84
2023-05-21T09:42:33.167Z,39.76
2023-05-21T09:44:59.480Z,39.26
2023-05-21T09:47:25.808Z,38.47
2023-05-21T09:49:52.449Z,37.85
2023-05-21T09:52:18.802Z,36.68
2023-05-21T09:54:45.156Z,37.87
2023-05-21T09:57:11.413Z,38.13
2023-05-21T09:59:37.768Z,37.07
2023-05-21T10:02:04.081Z,36.89
2023-05-21T10:04:30.620Z,37.20
2023-05-21T10:06:56.963Z,38.59
2023-05-21T10:09:23.227Z,39.14
2023-05-21T10:11:49.527Z,39.92
2023-05-21T10:14:15.971Z,38.44
2023-05-21T10:16:42.337Z,40.75
2023-05-21T10:19:08.852Z,40.13
2023-05-21T10:21:35.232Z,41.37
2023-05-21T10:24:01.804Z,38.98
2023-05-21T10:26:28.101Z,38.92
2023-05-21T10:28:55.120Z,40.81
2023-05-21T10:31:21.851Z,38.51
2023-05-21T10:33:48.293Z,38.04
2023-05-21T10:36:14.782Z,38.07
2023-05-21T10:38:41.217Z,38.73
2023-05-21T10:41:07.487Z,38.70
2023-05-21T10:43:33.752Z,39.65
2023-05-21T10:46:00.211Z,41.39
2023-05-21T10:48:26.549Z,38.86
2023-05-21T10:50:52.975Z,36.82
2023-05-21T10:53:19.240Z,37.84
2023-05-21T10:55:45.496Z,36.94
2023-05-21T10:58:11.787Z,36.00
2023-05-21T11:00:38.358Z,36.35
2023-05-21T11:03:04.994Z,37.27
2023-05-21T11:05:31.423Z,36.57
2023-05-21T11:07:57.824Z,34.96
2023-05-21T11:10:24.140Z,36.93
2023-05-21T11:12:50.402Z,35.85
2023-05-21T11:15:16.874Z,35.22
2023-05-21T11:17:44.460Z,35.71
2023-05-21T11:20:10.945Z,33.64
2023-05-21T11:22:37.231Z,34.04
2023-05-21T11:25:03.884Z,34.74
2023-05-21T11:27:30.606Z,33.26
2023-05-21T11:29:56.909Z,33.22
2023-05-21T11:32:23.227Z,33.62
2023-05-21T11:34:49.540Z,34.86
2023-05-21T11:37:16.004Z,33.86
2023-05-21T11:39:42.514Z,33.55
2023-05-21T11:42:08.772Z,32.33
2023-05-21T11:44:35.418Z,34.46
2023-05-21T11:47:01.757Z,35.14
2023-05-21T11:49:28.131Z,34.86
2023-05-21T11:51:55.046Z,34.36
2023-05-21T11:54:21.321Z,33.28
2023-05-21T11:56:47.992Z,33.57
2023-05-21T11:59:16.011Z,33.31
2023-05-21T12:01:43.480Z,35.22
2023-05-21T12:04:09.768Z,33.84
2023-05-21T12:06:36.046Z,34.71
2023-05-21T12:09:02.319Z,34.12
2023-05-21T12:11:28.676Z,33.51
2023-05-21T12:13:55.144Z,33.44
2023-05-21T12:16:23.144Z,33.67
2023-05-21T12:18:49.676Z,34.25
2023-05-21T12:21:15.963Z,34.87
2023-05-21T12:23:42.246Z,34.04
2023-05-21T12:26:08.548Z,33.19
2023-05-21T12:28:34.981Z,33.94
2023-05-21T12:31:01.615Z,32.37
2023-05-21T12:33:27.968Z,33.12
2023-05-21T12:35:54.444Z,32.65
2023-05-21T12:38:20.783Z,33.83
2023-05-21T12:40:47.499Z,32.50
2023-05-21T12:43:13.756Z,33.09
2023-05-21T12:45:40.071Z,33.75
2023-05-21T12:48:06.388Z,34.49
2023-05-21T12:50:32.759Z,33.06
2023-05-21T12:52:59.192Z,34.46
2023-05-21T12:55:25.862Z,33.33
2023-05-21T12:57:52.127Z,31.89
2023-05-21T13:00:18.538Z,34.11
2023-05-21T13:02:45.079Z,33.09
2023-05-21T13:05:11.527Z,33.46
2023-05-21T13:07:37.811Z,33.83
2023-05-21T13:10:04.223Z,33.34
2023-05-21T13:12:30.485Z,33.49
2023-05-21T13:14:56.796Z,34.02
2023-05-21T13:17:23.220Z,34.56
2023-05-21T13:19:49.749Z,32.71
2023-05-21T13:22:16.196Z,33.97
2023-05-21T13:24:42.724Z,33.00
2023-05-21T13:27:09.082Z,33.06
2023-05-21T13:29:35.340Z,32.65
2023-05-21T13:32:01.646Z,33.43
2023-05-21T13:34:27.902Z,33.65
2023-05-21T13:36:54.160Z,33.62
2023-05-21T13:39:20.469Z,31.93
2023-05-21T13:41:46.807Z,33.60
2023-05-21T13:44:13.076Z,34.10
2023-05-21T13:46:39.600Z,32.71
2023-05-21T13:49:05.941Z,32.86
2023-05-21T13:51:39.121Z,32.46
2023-05-21T13:54:05.706Z,31.20
2023-05-21T13:56:32.106Z,32.42
2023-05-21T13:58:58.361Z,31.51
2023-05-21T14:01:24.797Z,33.29
2023-05-21T14:03:51.091Z,33.17
2023-05-21T14:06:17.654Z,32.20
2023-05-21T14:08:43.923Z,31.49
2023-05-21T14:11:10.370Z,31.72
2023-05-21T14:13:36.643Z,33.40
2023-05-21T14:16:02.927Z,33.46
2023-05-21T14:18:29.597Z,32.95
2023-05-21T14:20:56.041Z,34.91
2023-05-21T14:23:22.392Z,34.25
2023-05-21T14:25:48.898Z,35.85
2023-05-21T14:28:15.170Z,34.02
2023-05-21T14:30:41.460Z,33.95
2023-05-21T14:33:07.870Z,35.30
2023-05-21T14:35:34.246Z,33.75
2023-05-21T14:38:01.031Z,34.90
2023-05-21T14:40:27.356Z,33.84
2023-05-21T14:42:53.683Z,33.83
2023-05-21T14:45:20.202Z,34.50
2023-05-21T14:47:46.551Z,34.82
2023-05-21T14:50:12.878Z,34.45
2023-05-21T14:52:39.525Z,33.80
2023-05-21T14:55:05.961Z,33.45
2023-05-21T14:57:32.261Z,34.03
2023-05-21T14:59:58.919Z,34.37
2023-05-21T15:02:25.589Z,34.81
2023-05-21T15:04:52.301Z,34.65
2023-05-21T15:07:18.710Z,34.22
2023-05-21T15:09:45.144Z,34.29
2023-05-21T15:12:11.528Z,34.39
2023-05-21T15:14:37.778Z,33.29
2023-05-21T15:17:04.050Z,32.95
2023-05-21T15:19:30.601Z,32.96
2023-05-21T15:21:56.932Z,32.70
2023-05-21T15:24:23.506Z,32.00
2023-05-21T15:26:49.776Z,32.58
2023-05-21T15:29:16.029Z,31.54
2023-05-21T15:31:42.461Z,32.69
2023-05-21T15:34:08.787Z,32.71
2023-05-21T15:36:35.103Z,34.15
2023-05-21T15:39:01.362Z,33.57
2023-05-21T15:41:27.888Z,34.97
2023-05-21T15:43:54.157Z,35.11
2023-05-21T15:46:20.852Z,35.44
2023-05-21T15:48:47.492Z,35.48
2023-05-21T15:51:14.007Z,35.80
2023-05-21T15:53:40.366Z,35.83
2023-05-21T15:56:06.663Z,36.05
2023-05-21T15:58:33.136Z,35.04
2023-05-21T16:00:59.487Z,35.73
2023-05-21T16:03:26.018Z,35.03
2023-05-21T16:05:52.803Z,36.14
2023-05-21T16:08:19.221Z,34.13
2023-05-21T16:10:45.669Z,34.39
2023-05-21T16:13:12.148Z,33.96
2023-05-21T16:15:38.541Z,34.16
2023-05-21T16:18:05.040Z,34.54
2023-05-21T16:20:31.549Z,34.42
2023-05-21T16:22:57.841Z,35.56
2023-05-21T16:25:24.141Z,35.63
2023-05-21T16:27:50.406Z,34.66
2023-05-21T16:30:16.682Z,35.61
2023-05-21T16:32:43.404Z,36.07
2023-05-21T16:35:09.712Z,34.70
2023-05-21T16:37:36.216Z,35.85
2023-05-21T16:40:02.569Z,36.85
2023-05-21T16:42:28.848Z,37.11
2023-05-21T16:44:55.231Z,36.08
2023-05-21T16:47:21.572Z,36.89
2023-05-21T16:49:47.991Z,36.73
2023-05-21T16:52:14.687Z,37.16
2023-05-21T16:54:41.167Z,36.96
2023-05-21T16:57:07.434Z,37.20
2023-05-21T16:59:33.732Z,37.68
2023-05-21T17:02:00.137Z,37.52
2023-05-21T17:04:26.892Z,35.79
2023-05-21T17:06:53.545Z,37.81
2023-05-21T17:09:19.805Z,36.97
2023-05-21T17:11:46.085Z,37.61
2023-05-21T17:14:17.494Z,35.83
2023-05-21T17:16:49.874Z,36.04
2023-05-21T17:19:16.217Z,35.66
2023-05-21T17:21:42.733Z,36.70
2023-05-21T17:24:09.026Z,36.93
2023-05-21T17:26:35.682Z,36.53
2023-05-21T17:29:02.866Z,36.63
2023-05-21T17:31:29.281Z,37.99
2023-05-21T17:33:55.640Z,37.62
2023-05-21T17:36:22.077Z,37.91
2023-05-21T17:38:48.428Z,38.24
2023-05-21T17:41:14.688Z,37.79
2023-05-21T17:43:40.990Z,38.39
2023-05-21T17:46:07.288Z,38.83
2023-05-21T17:48:33.692Z,38.45
2023-05-21T17:51:00.013Z,38.46
2023-05-21T17:53:26.292Z,38.75
2023-05-21T17:55:52.545Z,39.49
2023-05-21T17:58:18.814Z,39.89
2023-05-21T18:00:45.281Z,39.99
2023-05-21T18:03:11.862Z,40.11
2023-05-21T18:05:38.399Z,40.47
2023-05-21T18:08:05.074Z,40.62
2023-05-21T18:10:31.358Z,41.06
2023-05-21T18:12:58.825Z,42.15
2023-05-21T18:15:25.111Z,43.10
2023-05-21T18:17:52.221Z,43.45
2023-05-21T18:20:18.883Z,42.99
2023-05-21T18:22:45.586Z,44.65
2023-05-21T18:25:11.930Z,45.03
2023-05-21T18:27:38.309Z,45.32
2023-05-21T18:30:04.821Z,44.15
2023-05-21T18:32:31.144Z,43.26
2023-05-21T18:34:57.468Z,44.14
2023-05-21T18:37:23.748Z,43.80
2023-05-21T18:39:50.125Z,43.81
2023-05-21T18:42:16.478Z,44.08
2023-05-21T18:44:42.890Z,46.88
2023-05-21T18:47:09.182Z,47.34
2023-05-21T18:49:35.455Z,47.59
2023-05-21T18:52:01.900Z,48.13
2023-05-21T18:54:28.156Z,47.34
2023-05-21T18:56:54.788Z,47.28
2023-05-21T18:59:21.050Z,46.71
2023-05-21T19:01:47.451Z,46.96
2023-05-21T19:04:13.856Z,46.95
2023-05-21T19:06:40.487Z,47.32
2023-05-21T19:09:06.766Z,47.95
2023-05-21T19:11:33.267Z,48.55
2023-05-21T19:13:59.676Z,48.57
2023-05-21T19:16:26.043Z,48.58
2023-05-21T19:18:52.595Z,48.52
2023-05-21T19:21:19.260Z,48.65
2023-05-21T19:23:53.046Z,48.57
2023-05-21T19:26:20.181Z,49.06
2023-05-21T19:28:47.996Z,49.05
2023-05-21T19:31:14.287Z,48.91
2023-05-21T19:33:40.820Z,49.09
2023-05-21T19:36:07.209Z,49.09
2023-05-21T19:38:33.472Z,48.54
2023-05-21T19:40:59.753Z,49.32
2023-05-21T19:43:26.053Z,49.50
2023-05-21T19:45:52.587Z,49.15
2023-05-21T19:48:18.948Z,49.75
2023-05-21T19:50:45.255Z,49.37
2023-05-21T19:53:11.522Z,48.83
2023-05-21T19:55:37.818Z,48.96
2023-05-21T19:58:04.089Z,49.38
2023-05-21T20:00:30.354Z,49.06
2023-05-21T20:02:56.964Z,49.05
2023-05-21T20:05:23.449Z,48.97
2023-05-21T20:07:50.069Z,49.09
2023-05-21T20:10:16.788Z,48.46
2023-05-21T20:12:43.041Z,49.03
2023-05-21T20:15:09.306Z,49.61
2023-05-21T20:17:36.161Z,49.62
2023-05-21T20:20:02.926Z,49.35
2023-05-21T20:22:29.186Z,49.40
2023-05-21T20:24:55.710Z,49.43
2023-05-21T20:27:22.087Z,50.77
2023-05-21T20:29:48.740Z,51.02
2023-05-21T20:32:15.214Z,50.76
2023-05-21T20:34:50.714Z,50.37
2023-05-21T20:37:28.383Z,50.03
2023-05-21T20:39:55.039Z,51.42
2023-05-21T20:42:21.323Z,51.54
2023-05-21T20:44:47.612Z,51.40
2023-05-21T20:47:13.877Z,51.75
2023-05-21T20:49:40.574Z,52.34
2023-05-21T20:52:06.930Z,52.17
2023-05-21T20:54:33.200Z,52.61
2023-05-21T20:56:59.802Z,52.46
2023-05-21T20:59:26.310Z,52.50
2023-05-21T21:01:52.809Z,52.69
2023-05-21T21:04:19.120Z,53.04
2023-05-21T21:06:45.751Z,53.33
2023-05-21T21:09:12.028Z,53.86
2023-05-21T21:11:38.318Z,54.22
2023-05-21T21:14:04.721Z,54.07
2023-05-21T21:16:31.350Z,53.84
2023-05-21T21:18:57.725Z,53.94
2023-05-21T21:21:24.064Z,54.30
2023-05-21T21:23:50.499Z,55.07
2023-05-21T21:26:16.776Z,54.84
2023-05-21T21:28:44.903Z,55.19
2023-05-21T21:31:12.331Z,55.12
2023-05-21T21:33:38.891Z,55.02
2023-05-21T21:36:06.180Z,54.99
2023-05-21T21:38:32.480Z,54.85
2023-05-21T21:40:59.170Z,54.53
2023-05-21T21:43:25.557Z,54.33
2023-05-21T21:45:51.888Z,54.37
2023-05-21T21:48:18.195Z,54.86
2023-05-21T21:50:44.498Z,54.81
2023-05-21T21:53:10.860Z,55.48
2023-05-21T21:55:37.134Z,55.36
2023-05-21T21:58:03.435Z,55.84
2023-05-21T22:00:29.990Z,56.71
2023-05-21T22:02:56.292Z,56.07
2023-05-21T22:05:22.583Z,56.18
2023-05-21T22:07:48.908Z,55.53
2023-05-21T22:10:15.284Z,55.67
2023-05-21T22:12:41.611Z,54.93
2023-05-21T22:15:08.002Z,55.11
2023-05-21T22:17:34.409Z,56.00
2023-05-21T22:20:00.952Z,56.58
2023-05-21T22:22:27.567Z,56.93
2023-05-21T22:24:53.875Z,56.71
2023-05-21T22:27:20.175Z,57.00
2023-05-21T22:29:46.500Z,56.92
2023-05-21T22:32:12.779Z,56.70
2023-05-21T22:34:39.048Z,57.39
2023-05-21T22:37:05.295Z,57.58
2023-05-21T22:39:31.905Z,57.18
2023-05-21T22:41:58.305Z,57.60
2023-05-21T22:44:24.722Z,57.08
2023-05-21T22:46:51.252Z,56.85
2023-05-21T22:49:17.610Z,57.71
2023-05-21T22:51:43.892Z,57.52
2023-05-21T22:54:10.270Z,57.53
2023-05-21T22:56:36.661Z,58.29
2023-05-21T22:59:03.154Z,58.21
2023-05-21T23:01:29.493Z,58.39
2023-05-21T23:03:55.790Z,59.02
2023-05-21T23:06:22.229Z,58.79
2023-05-21T23:08:48.515Z,58.54
2023-05-21T23:11:14.981Z,58.34
2023-05-21T23:13:41.290Z,58.15
2023-05-21T23:16:07.715Z,58.20
2023-05-21T23:18:34.197Z,58.18
2023-05-21T23:21:00.617Z,58.73
2023-05-21T23:23:26.910Z,59.01
2023-05-21T23:25:53.211Z,59.29
2023-05-21T23:28:19.501Z,59.29
2023-05-21T23:30:46.021Z,58.93
2023-05-21T23:33:12.344Z,58.76
2023-05-21T23:35:38.629Z,58.89
2023-05-21T23:38:04.925Z,58.84
2023-05-21T23:40:31.203Z,58.39
2023-05-21T23:42:57.711Z,58.96
2023-05-21T23:45:24.028Z,59.00
2023-05-21T23:47:50.392Z,59.72
2023-05-21T23:50:16.781Z,60.16
2023-05-21T23:52:43.080Z,60.04
2023-05-21T23:55:09.533Z,60.02
2023-05-21T23:57:35.824Z,59.83
